createdAt,value
2019-05-11T00:00:24.301Z,18.40
2019-05-11T00:02:55.878Z,19.15
2019-05-11T00:05:26.560Z,14.33
2019-05-11T00:07:58.748Z,11.70
2019-05-11T00:10:31.954Z,15.68
2019-05-11T00:13:54.554Z,15.50
2019-05-11T00:17:11.425Z,14.18
2019-05-11T00:19:43.483Z,14.07
2019-05-11T00:25:38.623Z,11.03
2019-05-11T00:28:13.029Z,13.30
2019-05-11T00:30:44.838Z,15.75
2019-05-11T00:33:15.693Z,13.40
2019-05-11T00:38:45.862Z,12.50
2019-05-11T00:41:17.181Z,14.60
2019-05-11T00:47:07.301Z,17.98
2019-05-11T00:49:37.829Z,12.15
2019-05-11T00:52:08.465Z,14.43
2019-05-11T00:58:04.498Z,16.37
2019-05-11T01:00:35.753Z,15.58
2019-05-11T01:03:06.507Z,17.20
2019-05-11T01:06:32.838Z,15.95
2019-05-11T01:09:04.689Z,13.60
2019-05-11T01:11:35.659Z,13.55
2019-05-11T01:18:01.042Z,14.78
2019-05-11T01:20:32.688Z,20.27
2019-05-11T01:23:04.279Z,15.98
2019-05-11T01:25:35.520Z,12.00
2019-05-11T01:28:06.105Z,14.50
2019-05-11T01:30:38.780Z,14.28
2019-05-11T01:33:09.476Z,15.78
2019-05-11T01:38:55.340Z,14.58
2019-05-11T01:41:26.408Z,17.80
2019-05-11T01:44:37.144Z,18.48
2019-05-11T01:47:08.538Z,17.05
2019-05-11T01:49:41.606Z,16.27
2019-05-11T01:56:11.918Z,14.98
2019-05-11T01:58:43.795Z,15.15
2019-05-11T02:01:14.338Z,17.92
2019-05-11T02:04:47.868Z,21.25
2019-05-11T02:07:19.837Z,15.35
2019-05-11T02:09:51.567Z,15.78
2019-05-11T02:12:23.532Z,16.62
2019-05-11T02:14:54.774Z,13.22
2019-05-11T02:18:24.743Z,15.23
2019-05-11T02:21:46.859Z,16.75
2019-05-11T02:25:01.484Z,15.00
2019-05-11T02:34:53.904Z,19.17
2019-05-11T02:37:24.996Z,20.32
2019-05-11T02:40:03.458Z,20.50
2019-05-11T02:42:46.962Z,19.35
2019-05-11T02:45:33.595Z,18.32
2019-05-11T02:51:34.818Z,19.05
2019-05-11T02:54:06.656Z,22.10
2019-05-11T02:59:49.873Z,25.27
2019-05-11T03:03:13.443Z,21.65
2019-05-11T03:05:44.210Z,21.95
2019-05-11T03:08:33.433Z,24.35
2019-05-11T03:11:05.073Z,24.52
2019-05-11T03:14:29.189Z,20.57
2019-05-11T03:17:13.863Z,21.77
2019-05-11T03:19:45.461Z,26.33
2019-05-11T03:26:34.637Z,26.23
2019-05-11T03:29:05.681Z,26.40
2019-05-11T03:39:28.590Z,25.00
2019-05-11T03:42:14.059Z,24.80
2019-05-11T03:44:32.260Z,26.42
2019-05-11T03:47:03.213Z,34.15
2019-05-11T03:50:36.656Z,25.20
2019-05-11T03:53:07.567Z,26.90
2019-05-11T03:55:38.525Z,23.75
2019-05-11T03:58:09.872Z,31.05
2019-05-11T04:00:42.439Z,25.80
2019-05-11T04:03:14.105Z,25.17
2019-05-11T04:05:45.264Z,22.32
2019-05-11T04:08:16.308Z,28.35
2019-05-11T04:10:50.936Z,30.12
2019-05-11T04:13:22.048Z,33.45
2019-05-11T04:16:31.862Z,23.62
2019-05-11T04:19:03.474Z,21.65
2019-05-11T04:25:08.114Z,19.65
2019-05-11T04:27:39.547Z,19.62
2019-05-11T04:30:12.325Z,19.05
2019-05-11T04:32:45.756Z,25.40
2019-05-11T04:35:16.926Z,19.67
2019-05-11T04:37:47.947Z,15.08
2019-05-11T04:40:18.757Z,18.30
2019-05-11T04:42:55.989Z,18.82
2019-05-11T04:45:23.501Z,20.25
2019-05-11T04:47:55.584Z,20.75
2019-05-11T04:54:30.245Z,14.90
2019-05-11T04:57:03.321Z,21.60
2019-05-11T04:59:34.360Z,16.12
2019-05-11T05:06:24.706Z,21.35
2019-05-11T05:12:13.977Z,13.03
2019-05-11T05:15:24.224Z,17.27
2019-05-11T05:18:23.638Z,16.73
2019-05-11T05:20:55.418Z,16.70
2019-05-11T05:23:26.912Z,17.23
2019-05-11T05:29:43.585Z,21.80
2019-05-11T05:36:35.157Z,24.00
2019-05-11T05:43:49.287Z,17.02
2019-05-11T05:46:23.116Z,18.23
2019-05-11T05:59:37.139Z,16.62
2019-05-11T06:02:08.137Z,19.27
2019-05-11T06:04:39.157Z,20.10
2019-05-11T06:07:48.032Z,17.73
2019-05-11T06:10:19.026Z,22.58
2019-05-11T06:12:50.590Z,20.40
2019-05-11T06:15:22.902Z,15.95
2019-05-11T06:17:53.417Z,17.50
2019-05-11T06:20:24.353Z,21.87
2019-05-11T06:22:56.104Z,20.12
2019-05-11T06:25:26.575Z,19.37
2019-05-11T06:27:57.340Z,23.62
2019-05-11T06:30:27.796Z,18.30
2019-05-11T06:32:59.249Z,18.42
2019-05-11T06:35:29.860Z,21.42
2019-05-11T06:38:01.556Z,19.50
2019-05-11T06:40:32.043Z,22.65
2019-05-11T06:43:03.298Z,18.98
2019-05-11T06:46:25.554Z,20.15
2019-05-11T06:48:56.449Z,21.27
2019-05-11T06:51:26.897Z,17.60
2019-05-11T06:53:58.410Z,18.82
2019-05-11T06:56:31.479Z,19.32
2019-05-11T06:59:03.190Z,19.82
2019-05-11T07:01:35.371Z,15.65
2019-05-11T07:04:05.893Z,18.98
2019-05-11T07:06:37.142Z,18.32
2019-05-11T07:09:10.373Z,19.50
2019-05-11T07:11:40.943Z,18.02
2019-05-11T07:17:18.553Z,20.48
2019-05-11T07:19:49.244Z,14.03
2019-05-11T07:22:20.717Z,18.05
2019-05-11T07:24:51.554Z,14.28
2019-05-11T07:28:03.599Z,18.10
2019-05-11T07:30:34.831Z,17.23
2019-05-11T07:33:07.997Z,22.15
2019-05-11T07:35:38.471Z,16.50
2019-05-11T07:38:09.998Z,20.35
2019-05-11T07:40:40.591Z,17.15
2019-05-11T07:43:12.095Z,17.05
2019-05-11T07:45:43.160Z,20.52
2019-05-11T07:48:38.765Z,15.83
2019-05-11T07:51:09.333Z,14.13
2019-05-11T07:53:39.852Z,16.87
2019-05-11T07:56:11.618Z,15.00
2019-05-11T07:58:42.444Z,17.95
2019-05-11T08:05:05.271Z,16.50
2019-05-11T08:07:37.844Z,16.02
2019-05-11T08:10:53.474Z,17.70
2019-05-11T08:13:25.232Z,15.45
2019-05-11T08:20:40.246Z,13.45
2019-05-11T08:23:11.938Z,12.05
2019-05-11T08:25:42.989Z,17.82
2019-05-11T08:28:14.023Z,13.35
2019-05-11T08:30:45.011Z,16.10
2019-05-11T08:33:17.741Z,13.93
2019-05-11T08:35:48.529Z,16.07
2019-05-11T08:38:20.728Z,15.08
2019-05-11T08:40:51.642Z,15.08
2019-05-11T08:43:22.712Z,16.05
2019-05-11T08:45:53.304Z,14.20
2019-05-11T08:48:24.460Z,13.53
2019-05-11T08:50:55.082Z,14.13
2019-05-11T08:53:28.434Z,14.85
2019-05-11T08:56:00.400Z,12.85
2019-05-11T09:02:30.182Z,15.55
2019-05-11T09:05:00.969Z,11.50
2019-05-11T09:07:32.199Z,13.90
2019-05-11T09:10:08.132Z,12.50
2019-05-11T09:12:39.101Z,10.53
2019-05-11T09:15:10.952Z,12.58
2019-05-11T09:17:41.845Z,13.48
2019-05-11T09:20:13.528Z,11.25
2019-05-11T09:22:44.480Z,12.98
2019-05-11T09:25:18.363Z,13.93
2019-05-11T09:27:50.221Z,13.62
2019-05-11T09:31:11.204Z,13.22
2019-05-11T09:33:41.674Z,14.90
2019-05-11T09:36:12.260Z,13.88
2019-05-11T09:38:43.725Z,15.08
2019-05-11T09:41:14.219Z,15.93
2019-05-11T09:43:44.838Z,17.85
2019-05-11T09:46:18.555Z,12.98
2019-05-11T09:48:49.086Z,12.82
2019-05-11T09:51:19.682Z,13.30
2019-05-11T09:54:00.942Z,13.15
2019-05-11T09:56:35.004Z,11.90
2019-05-11T09:59:05.740Z,12.30
2019-05-11T10:01:37.854Z,13.68
2019-05-11T10:04:09.101Z,11.65
2019-05-11T10:06:40.934Z,12.20
2019-05-11T10:09:11.890Z,13.75
2019-05-11T10:15:41.524Z,13.70
2019-05-11T10:18:12.249Z,14.28
2019-05-11T10:24:28.251Z,11.48
2019-05-11T10:27:03.678Z,14.18
2019-05-11T10:29:34.246Z,13.38
2019-05-11T10:32:05.085Z,9.50
2019-05-11T10:34:35.659Z,12.53
2019-05-11T10:37:08.527Z,16.35
2019-05-11T10:39:39.463Z,13.18
2019-05-11T10:42:10.847Z,11.15
2019-05-11T10:44:43.060Z,11.68
2019-05-11T10:47:14.417Z,16.52
2019-05-11T10:49:45.451Z,9.23
2019-05-11T10:52:18.050Z,10.58
2019-05-11T10:54:49.078Z,10.58
2019-05-11T10:57:19.491Z,13.13
2019-05-11T10:59:50.493Z,11.75
2019-05-11T11:02:21.074Z,11.78
2019-05-11T11:07:42.065Z,10.98
2019-05-11T11:10:12.826Z,11.10
2019-05-11T11:12:43.703Z,8.65
2019-05-11T11:15:14.179Z,7.97
2019-05-11T11:20:51.340Z,11.88
2019-05-11T11:24:13.529Z,9.00
2019-05-11T11:26:44.498Z,12.45
2019-05-11T11:29:15.223Z,10.10
2019-05-11T11:31:48.168Z,12.07
2019-05-11T11:34:19.715Z,11.70
2019-05-11T11:36:50.926Z,9.73
2019-05-11T11:42:34.819Z,9.75
2019-05-11T11:45:07.993Z,9.48
2019-05-11T11:47:39.065Z,11.00
2019-05-11T11:50:11.838Z,11.20
2019-05-11T11:52:45.014Z,12.18
2019-05-11T11:55:14.939Z,8.75
2019-05-11T11:57:48.460Z,10.85
2019-05-11T12:00:18.471Z,10.80
2019-05-11T12:02:49.384Z,12.65
2019-05-11T12:05:20.098Z,11.65
2019-05-11T12:07:52.070Z,6.95
2019-05-11T12:14:48.015Z,12.40
2019-05-11T12:17:18.651Z,10.40
2019-05-11T12:19:49.516Z,10.18
2019-05-11T12:22:20.444Z,13.43
2019-05-11T12:24:51.886Z,7.85
2019-05-11T12:27:22.527Z,11.03
2019-05-11T12:29:53.269Z,9.50
2019-05-11T12:32:32.334Z,10.30
2019-05-11T12:35:03.250Z,14.75
2019-05-11T12:37:33.814Z,9.95
2019-05-11T12:40:08.233Z,8.25
2019-05-11T12:42:38.893Z,8.38
2019-05-11T12:45:10.831Z,10.70
2019-05-11T12:47:41.329Z,10.65
2019-05-11T12:50:12.665Z,10.45
2019-05-11T12:53:23.406Z,9.53
2019-05-11T12:55:59.077Z,9.55
2019-05-11T12:58:30.382Z,12.30
2019-05-11T13:01:01.496Z,8.95
2019-05-11T13:03:34.485Z,10.00
2019-05-11T13:06:08.191Z,9.75
2019-05-11T13:08:43.991Z,8.35
2019-05-11T13:11:15.125Z,13.28
2019-05-11T13:13:45.653Z,10.28
2019-05-11T13:16:18.515Z,11.30
2019-05-11T13:18:49.022Z,10.03
2019-05-11T13:21:19.687Z,8.00
2019-05-11T13:23:50.207Z,7.62
2019-05-11T13:26:20.885Z,9.10
2019-05-11T13:28:51.691Z,7.72
2019-05-11T13:31:22.603Z,9.45
2019-05-11T13:33:53.125Z,9.88
2019-05-11T13:36:34.501Z,10.70
2019-05-11T13:39:18.129Z,7.90
2019-05-11T13:41:48.937Z,10.38
2019-05-11T13:44:19.342Z,9.80
2019-05-11T13:46:51.453Z,11.43
2019-05-11T13:49:50.494Z,10.98
2019-05-11T13:52:21.556Z,8.80
2019-05-11T13:54:53.883Z,9.08
2019-05-11T13:57:25.332Z,8.35
2019-05-11T13:59:57.942Z,10.82
2019-05-11T14:02:29.824Z,10.90
2019-05-11T14:05:00.448Z,6.83
2019-05-11T14:07:30.794Z,8.95
2019-05-11T14:10:01.909Z,12.35
2019-05-11T14:13:14.045Z,9.38
2019-05-11T14:15:44.669Z,7.42
2019-05-11T14:18:18.158Z,7.12
2019-05-11T14:23:19.401Z,13.53
2019-05-11T14:25:50.313Z,9.50
2019-05-11T14:28:21.544Z,10.93
2019-05-11T14:31:04.777Z,9.25
2019-05-11T14:33:35.925Z,8.33
2019-05-11T14:36:28.162Z,9.28
2019-05-11T14:38:59.432Z,12.07
2019-05-11T14:41:30.059Z,9.88
2019-05-11T14:44:00.663Z,11.75
2019-05-11T14:46:31.391Z,8.88
2019-05-11T14:49:02.835Z,8.13
2019-05-11T14:51:54.055Z,6.95
2019-05-11T14:54:24.782Z,6.60
2019-05-11T14:56:58.593Z,7.08
2019-05-11T14:59:29.510Z,10.00
2019-05-11T15:02:18.097Z,11.95
2019-05-11T15:04:58.658Z,9.53
2019-05-11T15:07:29.985Z,8.15
2019-05-11T15:10:00.693Z,7.17
2019-05-11T15:12:31.245Z,10.88
2019-05-11T15:15:33.241Z,8.50
2019-05-11T15:18:04.266Z,7.03
2019-05-11T15:21:34.985Z,11.73
2019-05-11T15:24:08.760Z,7.50
2019-05-11T15:26:40.027Z,7.42
2019-05-11T15:29:10.850Z,9.20
2019-05-11T15:31:41.763Z,7.67
2019-05-11T15:34:12.884Z,11.83
2019-05-11T15:36:44.130Z,8.00
2019-05-11T15:39:18.183Z,8.80
2019-05-11T15:41:48.905Z,10.95
2019-05-11T15:44:20.531Z,7.87
2019-05-11T15:46:50.876Z,5.97
2019-05-11T15:49:22.101Z,9.13
2019-05-11T15:51:57.928Z,7.25
2019-05-11T15:54:29.064Z,6.65
2019-05-11T15:57:00.594Z,11.33
2019-05-11T15:59:32.000Z,7.25
2019-05-11T16:02:02.587Z,9.55
2019-05-11T16:04:33.864Z,6.70
2019-05-11T16:07:08.072Z,7.10
2019-05-11T16:09:38.174Z,4.90
2019-05-11T16:12:08.872Z,7.80
2019-05-11T16:14:39.587Z,6.80
2019-05-11T16:17:09.972Z,8.40
2019-05-11T16:19:41.095Z,8.60
2019-05-11T16:22:11.981Z,10.35
2019-05-11T17:08:12.248Z,9.03
2019-05-11T17:10:45.103Z,8.20
2019-05-11T17:13:15.261Z,7.45
2019-05-11T17:15:58.313Z,9.10
2019-05-11T17:18:30.683Z,7.72
2019-05-11T17:21:01.017Z,9.35
2019-05-11T17:23:33.803Z,7.05
2019-05-11T17:26:04.038Z,8.25
2019-05-11T17:28:34.265Z,7.95
2019-05-11T17:31:04.496Z,6.50
2019-05-11T17:33:34.752Z,7.92
2019-05-11T17:36:04.987Z,5.22
2019-05-11T17:38:35.214Z,6.62
2019-05-11T17:41:08.480Z,7.37
2019-05-11T17:43:39.242Z,7.40
2019-05-11T17:46:09.389Z,6.33
2019-05-11T17:48:41.192Z,5.70
2019-05-11T17:51:21.310Z,7.58
2019-05-11T17:53:43.324Z,7.58
2019-05-11T17:56:14.206Z,7.60
2019-05-11T17:58:44.652Z,8.13
2019-05-11T18:01:14.949Z,10.10
2019-05-11T18:03:45.200Z,7.85
2019-05-11T18:06:15.431Z,6.15
2019-05-11T18:08:47.709Z,8.98
2019-05-11T18:11:18.539Z,7.22
2019-05-11T18:13:49.233Z,9.05
2019-05-11T18:16:19.479Z,10.28
2019-05-11T18:18:49.740Z,9.80
2019-05-11T18:21:19.994Z,10.23
2019-05-11T18:23:50.275Z,7.42
2019-05-11T18:26:20.513Z,8.53
2019-05-11T18:28:50.783Z,8.03
2019-05-11T18:31:21.055Z,9.40
2019-05-11T18:33:58.446Z,8.93
2019-05-11T18:36:29.007Z,9.25
2019-05-11T18:38:59.429Z,11.83
2019-05-11T18:41:29.933Z,12.47
2019-05-11T18:44:00.616Z,60.58
2019-05-11T18:46:30.831Z,8.45
2019-05-11T18:49:02.622Z,12.55
2019-05-11T18:51:33.135Z,10.32
2019-05-11T18:54:06.091Z,6.37
2019-05-11T18:56:38.206Z,6.55
2019-05-11T18:59:09.147Z,9.80
2019-05-11T19:01:44.183Z,9.90
2019-05-11T19:04:25.672Z,7.78
2019-05-11T19:06:56.514Z,7.78
2019-05-11T19:09:28.407Z,6.17
2019-05-11T19:11:59.420Z,7.58
2019-05-11T19:14:29.988Z,9.88
2019-05-11T19:17:01.462Z,10.00
2019-05-11T19:19:31.605Z,11.63
2019-05-11T19:22:01.974Z,8.03
2019-05-11T19:24:32.225Z,6.80
2019-05-11T19:27:02.679Z,5.12
2019-05-11T19:29:32.932Z,8.43
2019-05-11T19:32:03.325Z,8.75
2019-05-11T19:34:33.572Z,7.33
2019-05-11T19:37:03.816Z,8.95
2019-05-11T19:39:35.005Z,16.45
2019-05-11T19:42:07.602Z,9.23
2019-05-11T19:44:38.589Z,11.18
2019-05-11T19:47:09.039Z,6.50
2019-05-11T19:49:39.200Z,8.23
2019-05-11T19:52:09.369Z,9.63
2019-05-11T19:54:39.522Z,10.05
2019-05-11T19:57:43.568Z,11.33
2019-05-11T20:00:15.067Z,7.85
2019-05-11T20:02:46.300Z,7.42
2019-05-11T20:05:18.374Z,7.67
2019-05-11T20:08:23.620Z,8.45
2019-05-11T20:10:54.105Z,9.03
2019-05-11T20:13:24.390Z,7.47
2019-05-11T20:15:55.047Z,6.60
2019-05-11T20:18:25.277Z,9.55
2019-05-11T20:20:55.940Z,6.42
2019-05-11T20:23:26.182Z,8.83
2019-05-11T20:25:58.214Z,11.53
2019-05-11T20:28:28.674Z,9.45
2019-05-11T20:30:59.148Z,7.80
2019-05-11T20:33:29.369Z,7.90
2019-05-11T20:35:59.571Z,8.38
2019-05-11T20:38:42.105Z,5.97
2019-05-11T20:41:12.487Z,12.53
2019-05-11T20:43:42.802Z,4.33
2019-05-11T20:46:13.076Z,5.78
2019-05-11T20:48:43.909Z,7.10
2019-05-11T20:51:14.072Z,5.70
2019-05-11T20:53:46.317Z,9.10
2019-05-11T20:56:17.795Z,6.72
2019-05-11T20:58:59.201Z,8.38
2019-05-11T21:01:30.048Z,7.15
2019-05-11T21:06:38.265Z,5.28
2019-05-11T21:09:08.475Z,8.43
2019-05-11T21:11:39.349Z,7.58
2019-05-11T21:14:10.429Z,5.92
2019-05-11T21:16:40.748Z,7.55
2019-05-11T21:19:10.971Z,7.08
2019-05-11T21:21:49.981Z,6.87
2019-05-11T21:24:13.185Z,6.92
2019-05-11T21:26:43.686Z,8.23
2019-05-11T21:29:13.915Z,11.12
2019-05-11T21:31:44.058Z,8.33
2019-05-11T21:34:38.393Z,4.85
2019-05-11T21:37:08.725Z,8.40
2019-05-11T21:40:21.944Z,6.55
2019-05-11T21:45:41.827Z,7.90
2019-05-11T21:48:12.292Z,5.37
2019-05-11T21:50:42.507Z,6.20
2019-05-11T21:53:12.755Z,10.20
2019-05-11T21:55:42.964Z,6.60
2019-05-11T21:58:13.166Z,5.30
2019-05-11T22:00:43.544Z,8.90
2019-05-11T22:03:14.182Z,5.87
2019-05-11T22:05:44.796Z,6.25
2019-05-11T22:08:14.927Z,5.72
2019-05-11T22:10:45.771Z,8.20
2019-05-11T22:16:21.508Z,5.87
2019-05-11T22:18:52.475Z,7.95
2019-05-11T22:21:23.349Z,12.28
2019-05-11T22:23:53.868Z,8.30
2019-05-11T22:26:24.211Z,11.80
2019-05-11T22:28:54.857Z,7.58
2019-05-11T22:31:25.039Z,7.28
2019-05-11T22:33:55.354Z,11.85
2019-05-11T22:36:27.962Z,7.47
2019-05-11T22:38:58.745Z,5.72
2019-05-11T22:41:29.139Z,6.72
2019-05-11T22:43:59.748Z,9.45
2019-05-11T22:46:30.231Z,8.03
2019-05-11T22:49:00.472Z,7.87
2019-05-11T22:51:30.678Z,6.97
2019-05-11T22:54:01.059Z,8.28
2019-05-11T22:56:31.200Z,7.62
2019-05-11T22:59:01.497Z,6.40
2019-05-11T23:01:31.627Z,7.37
2019-05-11T23:04:02.027Z,6.92
2019-05-11T23:06:33.078Z,9.50
2019-05-11T23:09:05.056Z,7.75
2019-05-11T23:11:37.790Z,8.08
2019-05-11T23:14:09.912Z,8.73
2019-05-11T23:16:53.989Z,7.45
2019-05-11T23:19:24.181Z,8.23
2019-05-11T23:21:54.523Z,11.38
2019-05-11T23:24:25.473Z,9.10
2019-05-11T23:27:00.669Z,8.05
2019-05-11T23:29:30.881Z,9.50
2019-05-11T23:32:01.447Z,7.80
2019-05-11T23:34:31.635Z,5.95
2019-05-11T23:37:02.090Z,9.23
2019-05-11T23:39:32.769Z,9.05
2019-05-11T23:45:01.034Z,8.05
2019-05-11T23:47:31.172Z,6.05
2019-05-11T23:50:01.919Z,12.53
2019-05-11T23:52:32.118Z,11.75
2019-05-11T23:55:02.295Z,10.88
2019-05-11T23:57:33.281Z,9.88
